sensor_id;sensor_type;location;lat;lon;timestamp;temperature;humidity
43651;DHT22;29247;50.944;5.382;2022-10-29T00:00:53;18.40;83.10
43651;DHT22;29247;50.944;5.382;2022-10-29T00:03:19;18.40;83.00
43651;DHT22;29247;50.944;5.382;2022-10-29T00:05:59;18.40;83.00
43651;DHT22;29247;50.944;5.382;2022-10-29T00:08:30;18.40;83.00
43651;DHT22;29247;50.944;5.382;2022-10-29T00:11:17;18.40;82.90
43651;DHT22;29247;50.944;5.382;2022-10-29T00:13:46;18.40;83.00
43651;DHT22;29247;50.944;5.382;2022-10-29T00:16:17;18.40;83.00
43651;DHT22;29247;50.944;5.382;2022-10-29T00:18:48;18.40;83.10
43651;DHT22;29247;50.944;5.382;2022-10-29T00:21:20;18.40;83.00
43651;DHT22;29247;50.944;5.382;2022-10-29T00:23:49;18.30;82.80
43651;DHT22;29247;50.944;5.382;2022-10-29T00:26:16;18.30;82.80
43651;DHT22;29247;50.944;5.382;2022-10-29T00:28:45;18.30;83.00
43651;DHT22;29247;50.944;5.382;2022-10-29T00:31:18;18.30;83.10
43651;DHT22;29247;50.944;5.382;2022-10-29T00:33:45;18.30;83.10
43651;DHT22;29247;50.944;5.382;2022-10-29T00:36:13;18.20;83.10
43651;DHT22;29247;50.944;5.382;2022-10-29T00:38:43;18.20;83.10
43651;DHT22;29247;50.944;5.382;2022-10-29T00:41:15;18.20;83.10
43651;DHT22;29247;50.944;5.382;2022-10-29T00:46:35;18.10;83.10
43651;DHT22;29247;50.944;5.382;2022-10-29T00:49:01;18.10;83.50
43651;DHT22;29247;50.944;5.382;2022-10-29T00:51:31;18.10;83.20
43651;DHT22;29247;50.944;5.382;2022-10-29T00:54:07;18.00;83.40
43651;DHT22;29247;50.944;5.382;2022-10-29T00:56:36;18.00;83.40
43651;DHT22;29247;50.944;5.382;2022-10-29T00:59:02;18.00;83.40
43651;DHT22;29247;50.944;5.382;2022-10-29T01:01:32;18.00;83.40
43651;DHT22;29247;50.944;5.382;2022-10-29T01:03:58;17.90;83.40
43651;DHT22;29247;50.944;5.382;2022-10-29T01:06:27;17.90;83.70
43651;DHT22;29247;50.944;5.382;2022-10-29T01:08:53;17.90;83.80
43651;DHT22;29247;50.944;5.382;2022-10-29T01:28:34;17.70;83.90
43651;DHT22;29247;50.944;5.382;2022-10-29T01:36:47;17.60;84.30
43651;DHT22;29247;50.944;5.382;2022-10-29T01:39:41;17.60;84.30
43651;DHT22;29247;50.944;5.382;2022-10-29T01:42:16;17.60;84.40
43651;DHT22;29247;50.944;5.382;2022-10-29T01:47:44;17.60;84.40
43651;DHT22;29247;50.944;5.382;2022-10-29T01:50:17;17.60;84.30
43651;DHT22;29247;50.944;5.382;2022-10-29T01:52:45;17.60;84.30
43651;DHT22;29247;50.944;5.382;2022-10-29T01:55:30;17.60;84.10
43651;DHT22;29247;50.944;5.382;2022-10-29T01:58:06;17.50;84.00
43651;DHT22;29247;50.944;5.382;2022-10-29T02:03:44;17.50;84.50
43651;DHT22;29247;50.944;5.382;2022-10-29T02:06:53;17.50;84.50
43651;DHT22;29247;50.944;5.382;2022-10-29T02:09:32;17.40;84.60
43651;DHT22;29247;50.944;5.382;2022-10-29T02:12:22;17.40;84.50
43651;DHT22;29247;50.944;5.382;2022-10-29T02:14:57;17.40;84.50
43651;DHT22;29247;50.944;5.382;2022-10-29T02:17:30;17.40;84.50
43651;DHT22;29247;50.944;5.382;2022-10-29T02:20:06;17.40;84.50
43651;DHT22;29247;50.944;5.382;2022-10-29T02:22:35;17.30;84.50
43651;DHT22;29247;50.944;5.382;2022-10-29T02:25:01;17.30;84.60
43651;DHT22;29247;50.944;5.382;2022-10-29T02:27:27;17.30;84.80
43651;DHT22;29247;50.944;5.382;2022-10-29T02:29:53;17.30;84.80
43651;DHT22;29247;50.944;5.382;2022-10-29T02:32:19;17.30;84.90
43651;DHT22;29247;50.944;5.382;2022-10-29T02:34:44;17.40;85.00
43651;DHT22;29247;50.944;5.382;2022-10-29T02:37:10;17.40;85.10
43651;DHT22;29247;50.944;5.382;2022-10-29T02:39:35;17.40;85.70
43651;DHT22;29247;50.944;5.382;2022-10-29T02:42:01;17.40;85.00
43651;DHT22;29247;50.944;5.382;2022-10-29T02:44:27;17.40;84.90
43651;DHT22;29247;50.944;5.382;2022-10-29T02:46:52;17.40;84.80
43651;DHT22;29247;50.944;5.382;2022-10-29T02:49:18;17.30;84.70
43651;DHT22;29247;50.944;5.382;2022-10-29T02:51:46;17.30;84.60
43651;DHT22;29247;50.944;5.382;2022-10-29T02:54:11;17.30;84.40
43651;DHT22;29247;50.944;5.382;2022-10-29T02:56:37;17.30;84.50
43651;DHT22;29247;50.944;5.382;2022-10-29T02:59:06;17.30;84.40
43651;DHT22;29247;50.944;5.382;2022-10-29T03:01:32;17.30;84.50
43651;DHT22;29247;50.944;5.382;2022-10-29T03:04:00;17.30;84.50
43651;DHT22;29247;50.944;5.382;2022-10-29T03:06:25;17.20;84.50
43651;DHT22;29247;50.944;5.382;2022-10-29T03:08:53;17.20;84.60
43651;DHT22;29247;50.944;5.382;2022-10-29T03:11:19;17.20;84.60
43651;DHT22;29247;50.944;5.382;2022-10-29T03:13:49;17.20;84.70
43651;DHT22;29247;50.944;5.382;2022-10-29T03:16:15;17.20;84.90
43651;DHT22;29247;50.944;5.382;2022-10-29T03:18:41;17.20;84.90
43651;DHT22;29247;50.944;5.382;2022-10-29T03:21:10;17.20;85.00
43651;DHT22;29247;50.944;5.382;2022-10-29T03:23:36;17.20;85.10
43651;DHT22;29247;50.944;5.382;2022-10-29T03:26:06;17.20;85.20
43651;DHT22;29247;50.944;5.382;2022-10-29T03:28:35;17.20;85.20
43651;DHT22;29247;50.944;5.382;2022-10-29T03:31:03;17.20;85.20
43651;DHT22;29247;50.944;5.382;2022-10-29T03:33:29;17.20;85.30
43651;DHT22;29247;50.944;5.382;2022-10-29T03:36:02;17.20;85.40
43651;DHT22;29247;50.944;5.382;2022-10-29T03:38:34;17.20;85.60
43651;DHT22;29247;50.944;5.382;2022-10-29T03:41:00;17.10;85.60
43651;DHT22;29247;50.944;5.382;2022-10-29T03:43:26;17.20;85.70
43651;DHT22;29247;50.944;5.382;2022-10-29T03:45:55;17.20;85.70
43651;DHT22;29247;50.944;5.382;2022-10-29T03:48:24;17.20;85.80
43651;DHT22;29247;50.944;5.382;2022-10-29T03:50:57;17.20;85.80
43651;DHT22;29247;50.944;5.382;2022-10-29T03:53:24;17.20;85.70
43651;DHT22;29247;50.944;5.382;2022-10-29T03:55:53;17.20;85.80
43651;DHT22;29247;50.944;5.382;2022-10-29T03:58:20;17.10;85.80
43651;DHT22;29247;50.944;5.382;2022-10-29T04:01:02;17.20;85.90
43651;DHT22;29247;50.944;5.382;2022-10-29T04:03:29;17.20;85.90
43651;DHT22;29247;50.944;5.382;2022-10-29T04:05:56;17.20;85.90
43651;DHT22;29247;50.944;5.382;2022-10-29T04:08:22;17.20;86.00
43651;DHT22;29247;50.944;5.382;2022-10-29T04:10:51;17.20;86.10
43651;DHT22;29247;50.944;5.382;2022-10-29T04:13:22;17.20;86.10
43651;DHT22;29247;50.944;5.382;2022-10-29T04:15:54;17.20;86.10
43651;DHT22;29247;50.944;5.382;2022-10-29T04:18:21;17.20;86.20
43651;DHT22;29247;50.944;5.382;2022-10-29T04:20:49;17.20;86.10
43651;DHT22;29247;50.944;5.382;2022-10-29T04:23:15;17.20;86.20
43651;DHT22;29247;50.944;5.382;2022-10-29T04:25:55;17.20;86.10
43651;DHT22;29247;50.944;5.382;2022-10-29T04:28:34;17.20;86.20
43651;DHT22;29247;50.944;5.382;2022-10-29T04:31:06;17.30;86.40
43651;DHT22;29247;50.944;5.382;2022-10-29T04:33:32;17.30;86.40
43651;DHT22;29247;50.944;5.382;2022-10-29T04:36:00;17.30;86.40
43651;DHT22;29247;50.944;5.382;2022-10-29T04:38:27;17.30;86.50
43651;DHT22;29247;50.944;5.382;2022-10-29T04:40:59;17.30;86.60
43651;DHT22;29247;50.944;5.382;2022-10-29T04:43:28;17.30;86.60
43651;DHT22;29247;50.944;5.382;2022-10-29T04:45:55;17.30;86.60
43651;DHT22;29247;50.944;5.382;2022-10-29T04:48:27;17.30;86.70
43651;DHT22;29247;50.944;5.382;2022-10-29T04:50:54;17.30;86.70
43651;DHT22;29247;50.944;5.382;2022-10-29T04:53:22;17.30;86.70
43651;DHT22;29247;50.944;5.382;2022-10-29T04:55:50;17.30;86.80
43651;DHT22;29247;50.944;5.382;2022-10-29T04:58:17;17.30;86.80
43651;DHT22;29247;50.944;5.382;2022-10-29T05:00:44;17.30;86.80
43651;DHT22;29247;50.944;5.382;2022-10-29T05:03:11;17.30;86.80
43651;DHT22;29247;50.944;5.382;2022-10-29T05:05:40;17.30;86.90
43651;DHT22;29247;50.944;5.382;2022-10-29T05:08:08;17.30;86.80
43651;DHT22;29247;50.944;5.382;2022-10-29T05:10:36;17.30;86.80
43651;DHT22;29247;50.944;5.382;2022-10-29T05:13:08;17.30;86.80
43651;DHT22;29247;50.944;5.382;2022-10-29T05:15:35;17.40;86.90
43651;DHT22;29247;50.944;5.382;2022-10-29T05:18:03;17.30;86.70
43651;DHT22;29247;50.944;5.382;2022-10-29T05:20:34;17.40;86.80
43651;DHT22;29247;50.944;5.382;2022-10-29T05:23:02;17.30;86.70
43651;DHT22;29247;50.944;5.382;2022-10-29T05:25:30;17.30;86.70
43651;DHT22;29247;50.944;5.382;2022-10-29T05:28:10;17.30;86.80
43651;DHT22;29247;50.944;5.382;2022-10-29T05:30:36;17.30;86.80
43651;DHT22;29247;50.944;5.382;2022-10-29T05:33:07;17.30;86.80
43651;DHT22;29247;50.944;5.382;2022-10-29T05:35:36;17.30;86.90
43651;DHT22;29247;50.944;5.382;2022-10-29T05:38:04;17.30;87.00
43651;DHT22;29247;50.944;5.382;2022-10-29T05:40:33;17.30;87.00
43651;DHT22;29247;50.944;5.382;2022-10-29T05:43:00;17.30;87.00
43651;DHT22;29247;50.944;5.382;2022-10-29T05:45:28;17.30;87.00
43651;DHT22;29247;50.944;5.382;2022-10-29T05:47:58;17.30;86.90
43651;DHT22;29247;50.944;5.382;2022-10-29T05:50:24;17.30;86.90
43651;DHT22;29247;50.944;5.382;2022-10-29T05:53:06;17.30;86.90
43651;DHT22;29247;50.944;5.382;2022-10-29T05:55:34;17.30;86.90
43651;DHT22;29247;50.944;5.382;2022-10-29T05:58:01;17.30;86.80
43651;DHT22;29247;50.944;5.382;2022-10-29T06:00:34;17.30;86.80
43651;DHT22;29247;50.944;5.382;2022-10-29T06:03:03;17.30;86.80
43651;DHT22;29247;50.944;5.382;2022-10-29T06:05:30;17.30;86.80
43651;DHT22;29247;50.944;5.382;2022-10-29T06:07:59;17.30;86.60
43651;DHT22;29247;50.944;5.382;2022-10-29T06:10:28;17.30;86.50
43651;DHT22;29247;50.944;5.382;2022-10-29T06:12:54;17.30;86.60
43651;DHT22;29247;50.944;5.382;2022-10-29T06:15:22;17.20;86.60
43651;DHT22;29247;50.944;5.382;2022-10-29T06:17:53;17.20;86.70
43651;DHT22;29247;50.944;5.382;2022-10-29T06:20:21;17.20;86.70
43651;DHT22;29247;50.944;5.382;2022-10-29T06:22:57;17.10;86.80
43651;DHT22;29247;50.944;5.382;2022-10-29T06:25:24;17.20;86.90
43651;DHT22;29247;50.944;5.382;2022-10-29T06:28:00;17.10;86.80
43651;DHT22;29247;50.944;5.382;2022-10-29T06:30:30;17.10;86.90
43651;DHT22;29247;50.944;5.382;2022-10-29T06:32:56;17.20;86.80
43651;DHT22;29247;50.944;5.382;2022-10-29T06:35:22;17.10;86.70
43651;DHT22;29247;50.944;5.382;2022-10-29T06:37:51;17.10;86.70
43651;DHT22;29247;50.944;5.382;2022-10-29T06:40:17;17.10;86.60
43651;DHT22;29247;50.944;5.382;2022-10-29T06:42:45;17.10;86.60
43651;DHT22;29247;50.944;5.382;2022-10-29T06:45:11;17.10;86.70
43651;DHT22;29247;50.944;5.382;2022-10-29T06:47:39;17.00;86.70
43651;DHT22;29247;50.944;5.382;2022-10-29T06:50:05;17.00;86.80
43651;DHT22;29247;50.944;5.382;2022-10-29T06:52:33;17.00;86.90
43651;DHT22;29247;50.944;5.382;2022-10-29T06:55:02;17.00;87.00
43651;DHT22;29247;50.944;5.382;2022-10-29T06:57:28;16.90;87.00
43651;DHT22;29247;50.944;5.382;2022-10-29T06:59:54;17.00;87.20
43651;DHT22;29247;50.944;5.382;2022-10-29T07:02:21;17.00;87.30
43651;DHT22;29247;50.944;5.382;2022-10-29T07:04:54;17.00;87.50
43651;DHT22;29247;50.944;5.382;2022-10-29T07:07:22;17.00;87.50
43651;DHT22;29247;50.944;5.382;2022-10-29T07:09:48;17.00;87.60
43651;DHT22;29247;50.944;5.382;2022-10-29T07:12:18;17.10;87.70
43651;DHT22;29247;50.944;5.382;2022-10-29T07:14:43;17.00;87.70
43651;DHT22;29247;50.944;5.382;2022-10-29T07:17:12;17.10;87.80
43651;DHT22;29247;50.944;5.382;2022-10-29T07:19:38;17.10;87.90
43651;DHT22;29247;50.944;5.382;2022-10-29T07:22:04;17.10;88.00
43651;DHT22;29247;50.944;5.382;2022-10-29T07:24:32;17.10;88.00
43651;DHT22;29247;50.944;5.382;2022-10-29T07:26:58;17.20;88.10
43651;DHT22;29247;50.944;5.382;2022-10-29T07:29:26;17.20;88.10
43651;DHT22;29247;50.944;5.382;2022-10-29T07:31:54;17.20;88.10
43651;DHT22;29247;50.944;5.382;2022-10-29T07:34:20;17.30;88.10
43651;DHT22;29247;50.944;5.382;2022-10-29T07:36:48;17.30;88.00
43651;DHT22;29247;50.944;5.382;2022-10-29T07:39:13;17.30;87.90
43651;DHT22;29247;50.944;5.382;2022-10-29T07:41:39;17.30;87.90
43651;DHT22;29247;50.944;5.382;2022-10-29T07:44:05;17.30;87.90
43651;DHT22;29247;50.944;5.382;2022-10-29T07:46:34;17.30;87.90
43651;DHT22;29247;50.944;5.382;2022-10-29T07:49:00;17.40;88.00
43651;DHT22;29247;50.944;5.382;2022-10-29T07:51:26;17.40;88.10
43651;DHT22;29247;50.944;5.382;2022-10-29T07:53:55;17.40;88.20
43651;DHT22;29247;50.944;5.382;2022-10-29T07:56:23;17.40;88.30
43651;DHT22;29247;50.944;5.382;2022-10-29T07:58:49;17.50;88.40
43651;DHT22;29247;50.944;5.382;2022-10-29T08:01:17;17.50;88.40
43651;DHT22;29247;50.944;5.382;2022-10-29T08:03:43;17.60;88.50
43651;DHT22;29247;50.944;5.382;2022-10-29T08:06:11;17.60;88.50
43651;DHT22;29247;50.944;5.382;2022-10-29T08:08:39;17.60;88.40
43651;DHT22;29247;50.944;5.382;2022-10-29T08:11:05;17.70;88.50
43651;DHT22;29247;50.944;5.382;2022-10-29T08:13:33;17.70;89.30
43651;DHT22;29247;50.944;5.382;2022-10-29T08:15:59;17.80;88.70
43651;DHT22;29247;50.944;5.382;2022-10-29T08:18:25;17.80;88.70
43651;DHT22;29247;50.944;5.382;2022-10-29T08:20:53;17.90;88.70
43651;DHT22;29247;50.944;5.382;2022-10-29T08:23:21;17.90;88.70
43651;DHT22;29247;50.944;5.382;2022-10-29T08:25:49;18.00;88.80
43651;DHT22;29247;50.944;5.382;2022-10-29T08:28:17;18.00;88.80
43651;DHT22;29247;50.944;5.382;2022-10-29T08:30:48;18.10;88.90
43651;DHT22;29247;50.944;5.382;2022-10-29T08:33:14;18.20;88.90
43651;DHT22;29247;50.944;5.382;2022-10-29T08:35:42;18.20;88.80
43651;DHT22;29247;50.944;5.382;2022-10-29T08:38:10;18.30;88.90
43651;DHT22;29247;50.944;5.382;2022-10-29T08:46:59;18.50;88.40
43651;DHT22;29247;50.944;5.382;2022-10-29T08:49:55;18.50;88.00
43651;DHT22;29247;50.944;5.382;2022-10-29T08:52:02;18.60;87.80
43651;DHT22;29247;50.944;5.382;2022-10-29T08:54:36;18.60;87.50
43651;DHT22;29247;50.944;5.382;2022-10-29T08:57:14;18.60;87.30
43651;DHT22;29247;50.944;5.382;2022-10-29T08:59:48;18.60;87.10
43651;DHT22;29247;50.944;5.382;2022-10-29T09:02:18;18.70;86.90
43651;DHT22;29247;50.944;5.382;2022-10-29T09:04:44;18.70;86.70
43651;DHT22;29247;50.944;5.382;2022-10-29T09:10:08;18.70;86.80
43651;DHT22;29247;50.944;5.382;2022-10-29T09:21:30;18.90;86.80
43651;DHT22;29247;50.944;5.382;2022-10-29T09:29:13;19.00;87.10
43651;DHT22;29247;50.944;5.382;2022-10-29T09:34:37;19.20;86.70
43651;DHT22;29247;50.944;5.382;2022-10-29T09:37:09;19.20;86.50
43651;DHT22;29247;50.944;5.382;2022-10-29T09:39:44;19.30;86.20
43651;DHT22;29247;50.944;5.382;2022-10-29T09:42:15;19.30;86.10
43651;DHT22;29247;50.944;5.382;2022-10-29T09:44:52;19.40;86.10
43651;DHT22;29247;50.944;5.382;2022-10-29T09:52:49;19.50;86.00
43651;DHT22;29247;50.944;5.382;2022-10-29T09:55:27;19.60;86.00
43651;DHT22;29247;50.944;5.382;2022-10-29T09:57:55;19.60;85.80
43651;DHT22;29247;50.944;5.382;2022-10-29T10:00:29;19.70;85.90
43651;DHT22;29247;50.944;5.382;2022-10-29T10:03:20;19.70;85.50
43651;DHT22;29247;50.944;5.382;2022-10-29T10:06:03;19.80;85.10
43651;DHT22;29247;50.944;5.382;2022-10-29T10:08:30;19.80;84.60
43651;DHT22;29247;50.944;5.382;2022-10-29T10:11:05;19.80;84.30
43651;DHT22;29247;50.944;5.382;2022-10-29T10:13:51;19.80;84.00
43651;DHT22;29247;50.944;5.382;2022-10-29T10:16:28;19.80;83.80
43651;DHT22;29247;50.944;5.382;2022-10-29T10:18:56;19.90;83.70
43651;DHT22;29247;50.944;5.382;2022-10-29T10:21:31;19.90;83.60
43651;DHT22;29247;50.944;5.382;2022-10-29T10:23:58;19.90;83.40
43651;DHT22;29247;50.944;5.382;2022-10-29T10:29:09;20.00;83.10
43651;DHT22;29247;50.944;5.382;2022-10-29T10:31:40;20.10;82.90
43651;DHT22;29247;50.944;5.382;2022-10-29T10:34:25;20.20;83.40
43651;DHT22;29247;50.944;5.382;2022-10-29T10:36:56;20.20;82.50
43651;DHT22;29247;50.944;5.382;2022-10-29T10:42:02;20.40;81.90
43651;DHT22;29247;50.944;5.382;2022-10-29T10:44:32;20.40;81.60
43651;DHT22;29247;50.944;5.382;2022-10-29T10:47:04;20.50;81.10
43651;DHT22;29247;50.944;5.382;2022-10-29T10:49:36;20.50;80.80
43651;DHT22;29247;50.944;5.382;2022-10-29T10:52:05;20.60;80.50
43651;DHT22;29247;50.944;5.382;2022-10-29T10:54:37;20.60;80.00
43651;DHT22;29247;50.944;5.382;2022-10-29T11:04:49;20.80;79.20
43651;DHT22;29247;50.944;5.382;2022-10-29T11:07:16;20.90;78.90
43651;DHT22;29247;50.944;5.382;2022-10-29T11:09:50;20.90;78.60
43651;DHT22;29247;50.944;5.382;2022-10-29T11:12:35;21.00;78.50
43651;DHT22;29247;50.944;5.382;2022-10-29T11:15:16;21.00;78.40
43651;DHT22;29247;50.944;5.382;2022-10-29T11:20:42;21.20;78.30
43651;DHT22;29247;50.944;5.382;2022-10-29T11:26:12;21.30;77.70
43651;DHT22;29247;50.944;5.382;2022-10-29T11:28:57;21.40;77.90
43651;DHT22;29247;50.944;5.382;2022-10-29T11:31:30;21.40;76.50
43651;DHT22;29247;50.944;5.382;2022-10-29T11:36:43;21.50;76.00
43651;DHT22;29247;50.944;5.382;2022-10-29T11:39:54;21.60;75.80
43651;DHT22;29247;50.944;5.382;2022-10-29T11:42:24;21.60;75.30
43651;DHT22;29247;50.944;5.382;2022-10-29T11:44:52;21.60;74.80
43651;DHT22;29247;50.944;5.382;2022-10-29T11:55:32;21.80;74.60
43651;DHT22;29247;50.944;5.382;2022-10-29T12:06:43;21.90;73.40
43651;DHT22;29247;50.944;5.382;2022-10-29T12:09:30;21.90;73.10
43651;DHT22;29247;50.944;5.382;2022-10-29T12:14:46;21.90;72.50
43651;DHT22;29247;50.944;5.382;2022-10-29T12:17:36;21.90;72.70
43651;DHT22;29247;50.944;5.382;2022-10-29T12:22:57;22.00;72.70
43651;DHT22;29247;50.944;5.382;2022-10-29T12:28:23;22.10;72.40
43651;DHT22;29247;50.944;5.382;2022-10-29T12:31:12;22.10;72.20
43651;DHT22;29247;50.944;5.382;2022-10-29T12:36:26;22.10;70.90
43651;DHT22;29247;50.944;5.382;2022-10-29T12:38:59;22.10;71.60
43651;DHT22;29247;50.944;5.382;2022-10-29T12:41:35;22.10;70.90
43651;DHT22;29247;50.944;5.382;2022-10-29T12:44:25;22.10;71.10
43651;DHT22;29247;50.944;5.382;2022-10-29T12:47:01;22.10;70.80
43651;DHT22;29247;50.944;5.382;2022-10-29T12:49:56;22.20;70.70
43651;DHT22;29247;50.944;5.382;2022-10-29T12:54:57;22.10;70.50
43651;DHT22;29247;50.944;5.382;2022-10-29T12:57:32;22.20;70.90
43651;DHT22;29247;50.944;5.382;2022-10-29T13:02:51;22.10;71.40
43651;DHT22;29247;50.944;5.382;2022-10-29T13:05:41;22.10;71.40
43651;DHT22;29247;50.944;5.382;2022-10-29T13:08:18;22.10;71.50
43651;DHT22;29247;50.944;5.382;2022-10-29T13:10:50;22.00;71.90
43651;DHT22;29247;50.944;5.382;2022-10-29T13:18:27;22.00;73.30
43651;DHT22;29247;50.944;5.382;2022-10-29T13:20:58;22.10;74.10
43651;DHT22;29247;50.944;5.382;2022-10-29T13:25:56;22.10;74.70
43651;DHT22;29247;50.944;5.382;2022-10-29T13:30:52;22.10;74.90
43651;DHT22;29247;50.944;5.382;2022-10-29T13:41:26;22.20;74.20
43651;DHT22;29247;50.944;5.382;2022-10-29T13:44:03;22.20;74.80
43651;DHT22;29247;50.944;5.382;2022-10-29T13:58:06;22.40;75.60
43651;DHT22;29247;50.944;5.382;2022-10-29T14:00:37;22.40;75.50
43651;DHT22;29247;50.944;5.382;2022-10-29T14:04:05;22.40;75.10
43651;DHT22;29247;50.944;5.382;2022-10-29T14:06:21;22.40;75.00
43651;DHT22;29247;50.944;5.382;2022-10-29T14:11:43;22.40;74.60
43651;DHT22;29247;50.944;5.382;2022-10-29T14:14:25;22.40;74.50
43651;DHT22;29247;50.944;5.382;2022-10-29T14:17:16;22.40;74.60
43651;DHT22;29247;50.944;5.382;2022-10-29T14:19:44;22.30;74.50
43651;DHT22;29247;50.944;5.382;2022-10-29T14:25:02;22.40;75.30
43651;DHT22;29247;50.944;5.382;2022-10-29T14:27:28;22.40;75.60
43651;DHT22;29247;50.944;5.382;2022-10-29T14:30:10;22.40;75.90
43651;DHT22;29247;50.944;5.382;2022-10-29T14:32:38;22.40;75.90
43651;DHT22;29247;50.944;5.382;2022-10-29T14:35:06;22.40;75.70
43651;DHT22;29247;50.944;5.382;2022-10-29T14:37:36;22.40;75.60
43651;DHT22;29247;50.944;5.382;2022-10-29T14:40:20;22.30;75.70
43651;DHT22;29247;50.944;5.382;2022-10-29T14:42:54;22.30;75.90
43651;DHT22;29247;50.944;5.382;2022-10-29T14:45:24;22.30;76.00
43651;DHT22;29247;50.944;5.382;2022-10-29T14:48:07;22.30;76.00
43651;DHT22;29247;50.944;5.382;2022-10-29T14:50:38;22.30;76.20
43651;DHT22;29247;50.944;5.382;2022-10-29T14:53:25;22.20;76.30
43651;DHT22;29247;50.944;5.382;2022-10-29T14:55:55;22.20;76.50
43651;DHT22;29247;50.944;5.382;2022-10-29T14:58:28;22.20;76.50
43651;DHT22;29247;50.944;5.382;2022-10-29T15:01:01;22.10;77.40
43651;DHT22;29247;50.944;5.382;2022-10-29T15:03:31;22.10;76.90
43651;DHT22;29247;50.944;5.382;2022-10-29T15:06:18;22.10;77.00
43651;DHT22;29247;50.944;5.382;2022-10-29T15:11:39;22.00;77.40
43651;DHT22;29247;50.944;5.382;2022-10-29T15:17:22;22.00;77.70
43651;DHT22;29247;50.944;5.382;2022-10-29T15:19:57;21.90;77.50
43651;DHT22;29247;50.944;5.382;2022-10-29T15:22:33;21.90;77.60
43651;DHT22;29247;50.944;5.382;2022-10-29T15:25:01;21.80;77.60
43651;DHT22;29247;50.944;5.382;2022-10-29T15:27:30;21.80;77.60
43651;DHT22;29247;50.944;5.382;2022-10-29T15:29:58;21.70;77.40
43651;DHT22;29247;50.944;5.382;2022-10-29T15:32:26;21.70;77.50
43651;DHT22;29247;50.944;5.382;2022-10-29T15:34:57;21.70;77.50
43651;DHT22;29247;50.944;5.382;2022-10-29T15:42:29;21.50;77.40
43651;DHT22;29247;50.944;5.382;2022-10-29T15:47:41;21.40;77.30
43651;DHT22;29247;50.944;5.382;2022-10-29T15:50:13;21.40;77.30
43651;DHT22;29247;50.944;5.382;2022-10-29T15:52:46;21.40;77.50
43651;DHT22;29247;50.944;5.382;2022-10-29T15:55:24;21.30;77.60
43651;DHT22;29247;50.944;5.382;2022-10-29T15:57:50;21.30;77.70
43651;DHT22;29247;50.944;5.382;2022-10-29T16:00:20;21.30;78.40
43651;DHT22;29247;50.944;5.382;2022-10-29T16:02:49;21.20;77.80
43651;DHT22;29247;50.944;5.382;2022-10-29T16:05:16;21.20;77.80
43651;DHT22;29247;50.944;5.382;2022-10-29T16:07:42;21.10;78.00
43651;DHT22;29247;50.944;5.382;2022-10-29T16:10:17;21.10;78.90
43651;DHT22;29247;50.944;5.382;2022-10-29T16:12:44;21.00;78.20
43651;DHT22;29247;50.944;5.382;2022-10-29T16:15:16;21.00;78.30
43651;DHT22;29247;50.944;5.382;2022-10-29T16:17:45;20.90;78.50
43651;DHT22;29247;50.944;5.382;2022-10-29T16:20:16;20.90;78.50
43651;DHT22;29247;50.944;5.382;2022-10-29T16:22:45;20.90;78.60
43651;DHT22;29247;50.944;5.382;2022-10-29T16:25:19;20.80;78.70
43651;DHT22;29247;50.944;5.382;2022-10-29T16:27:46;20.80;78.80
43651;DHT22;29247;50.944;5.382;2022-10-29T16:30:18;20.80;78.90
43651;DHT22;29247;50.944;5.382;2022-10-29T16:32:44;20.70;78.70
43651;DHT22;29247;50.944;5.382;2022-10-29T16:35:23;20.60;78.80
43651;DHT22;29247;50.944;5.382;2022-10-29T16:37:50;20.60;79.00
43651;DHT22;29247;50.944;5.382;2022-10-29T16:40:20;20.60;79.10
43651;DHT22;29247;50.944;5.382;2022-10-29T16:42:46;20.50;79.00
43651;DHT22;29247;50.944;5.382;2022-10-29T16:45:21;20.50;79.10
43651;DHT22;29247;50.944;5.382;2022-10-29T16:47:46;20.50;79.20
43651;DHT22;29247;50.944;5.382;2022-10-29T16:50:18;20.40;79.10
43651;DHT22;29247;50.944;5.382;2022-10-29T16:52:46;20.40;79.10
43651;DHT22;29247;50.944;5.382;2022-10-29T16:55:12;20.40;79.00
43651;DHT22;29247;50.944;5.382;2022-10-29T16:57:38;20.30;79.00
43651;DHT22;29247;50.944;5.382;2022-10-29T17:00:09;20.30;78.90
43651;DHT22;29247;50.944;5.382;2022-10-29T17:02:38;20.20;78.80
43651;DHT22;29247;50.944;5.382;2022-10-29T17:05:05;20.20;78.80
43651;DHT22;29247;50.944;5.382;2022-10-29T17:07:34;20.20;78.70
43651;DHT22;29247;50.944;5.382;2022-10-29T17:10:02;20.20;78.70
43651;DHT22;29247;50.944;5.382;2022-10-29T17:12:28;20.10;78.50
43651;DHT22;29247;50.944;5.382;2022-10-29T17:14:56;20.10;78.50
43651;DHT22;29247;50.944;5.382;2022-10-29T17:17:21;20.20;78.60
43651;DHT22;29247;50.944;5.382;2022-10-29T17:19:47;20.10;78.40
43651;DHT22;29247;50.944;5.382;2022-10-29T17:22:12;20.10;78.30
43651;DHT22;29247;50.944;5.382;2022-10-29T17:24:42;20.10;78.20
43651;DHT22;29247;50.944;5.382;2022-10-29T17:27:11;20.00;78.10
43651;DHT22;29247;50.944;5.382;2022-10-29T17:29:37;20.00;77.90
43651;DHT22;29247;50.944;5.382;2022-10-29T17:32:05;20.00;77.90
43651;DHT22;29247;50.944;5.382;2022-10-29T17:34:31;19.90;77.70
43651;DHT22;29247;50.944;5.382;2022-10-29T17:36:57;20.00;77.70
43651;DHT22;29247;50.944;5.382;2022-10-29T17:39:26;19.90;77.60
43651;DHT22;29247;50.944;5.382;2022-10-29T17:41:54;19.90;77.70
43651;DHT22;29247;50.944;5.382;2022-10-29T17:44:24;19.90;77.80
43651;DHT22;29247;50.944;5.382;2022-10-29T17:46:55;19.80;77.80
43651;DHT22;29247;50.944;5.382;2022-10-29T17:49:21;19.80;77.70
43651;DHT22;29247;50.944;5.382;2022-10-29T17:51:47;19.80;77.60
43651;DHT22;29247;50.944;5.382;2022-10-29T17:54:14;19.80;77.60
43651;DHT22;29247;50.944;5.382;2022-10-29T17:56:43;19.70;77.70
43651;DHT22;29247;50.944;5.382;2022-10-29T17:59:11;19.70;77.60
43651;DHT22;29247;50.944;5.382;2022-10-29T18:01:39;19.60;77.50
43651;DHT22;29247;50.944;5.382;2022-10-29T18:04:05;19.60;77.50
43651;DHT22;29247;50.944;5.382;2022-10-29T18:06:34;19.60;77.40
43651;DHT22;29247;50.944;5.382;2022-10-29T18:09:03;19.50;77.40
43651;DHT22;29247;50.944;5.382;2022-10-29T18:11:29;19.50;77.40
43651;DHT22;29247;50.944;5.382;2022-10-29T18:13:56;19.40;77.40
43651;DHT22;29247;50.944;5.382;2022-10-29T18:16:24;19.40;77.60
43651;DHT22;29247;50.944;5.382;2022-10-29T18:18:52;19.40;77.90
43651;DHT22;29247;50.944;5.382;2022-10-29T18:21:24;19.40;78.10
43651;DHT22;29247;50.944;5.382;2022-10-29T18:23:50;19.30;78.20
43651;DHT22;29247;50.944;5.382;2022-10-29T18:26:30;19.30;78.30
43651;DHT22;29247;50.944;5.382;2022-10-29T18:28:58;19.30;78.60
43651;DHT22;29247;50.944;5.382;2022-10-29T18:31:25;19.30;78.50
43651;DHT22;29247;50.944;5.382;2022-10-29T18:33:58;19.30;78.60
43651;DHT22;29247;50.944;5.382;2022-10-29T18:36:24;19.30;78.70
43651;DHT22;29247;50.944;5.382;2022-10-29T18:38:52;19.20;78.60